createdAt,value
2019-05-22T00:00:41.890Z,16.63
2019-05-22T00:03:16.092Z,16.62
2019-05-22T00:05:48.187Z,16.63
2019-05-22T00:08:19.683Z,16.64
2019-05-22T00:10:53.933Z,16.65
2019-05-22T00:13:31.613Z,16.66
2019-05-22T00:16:04.120Z,16.60
2019-05-22T00:18:37.909Z,16.67
2019-05-22T00:21:10.692Z,16.78
2019-05-22T00:23:42.629Z,16.86
2019-05-22T00:26:15.053Z,16.84
2019-05-22T00:28:46.017Z,16.83
2019-05-22T00:31:18.615Z,16.82
2019-05-22T00:33:49.667Z,16.72
2019-05-22T00:36:20.919Z,16.71
2019-05-22T00:38:51.865Z,16.61
2019-05-22T00:41:24.560Z,16.57
2019-05-22T00:43:56.963Z,16.50
2019-05-22T00:46:28.724Z,16.42
2019-05-22T00:49:00.031Z,16.37
2019-05-22T00:51:50.112Z,16.33
2019-05-22T00:54:29.036Z,16.42
2019-05-22T00:57:15.647Z,16.49
2019-05-22T00:59:49.541Z,16.45
2019-05-22T01:02:27.450Z,16.50
2019-05-22T01:05:00.047Z,16.51
2019-05-22T01:07:39.411Z,16.55
2019-05-22T01:10:12.479Z,16.57
2019-05-22T01:12:46.875Z,16.67
2019-05-22T01:15:21.484Z,16.74
2019-05-22T01:17:54.514Z,16.75
2019-05-22T01:20:28.547Z,16.86
2019-05-22T01:23:03.686Z,16.88
2019-05-22T01:25:36.307Z,16.94
2019-05-22T01:28:09.186Z,16.92
2019-05-22T01:30:57.922Z,16.86
2019-05-22T01:33:37.728Z,16.80
2019-05-22T01:36:39.787Z,16.74
2019-05-22T01:39:26.379Z,16.72
2019-05-22T01:42:02.356Z,16.65
2019-05-22T01:44:36.453Z,16.60
2019-05-22T01:47:14.894Z,16.59
2019-05-22T01:49:52.878Z,16.55
2019-05-22T01:52:24.394Z,16.47
2019-05-22T01:54:57.878Z,16.52
2019-05-22T01:57:30.293Z,16.51
2019-05-22T02:00:03.876Z,16.43
2019-05-22T02:02:35.775Z,16.42
2019-05-22T02:05:09.226Z,16.43
2019-05-22T02:07:41.851Z,16.46
2019-05-22T02:10:17.597Z,16.48
2019-05-22T02:12:55.112Z,16.46
2019-05-22T02:15:27.792Z,16.46
2019-05-22T02:18:00.611Z,16.43
2019-05-22T02:20:31.431Z,16.39
2019-05-22T02:23:02.554Z,16.30
2019-05-22T02:25:34.624Z,16.18
2019-05-22T02:28:06.320Z,16.08
2019-05-22T02:30:40.944Z,16.03
2019-05-22T02:33:13.808Z,15.75
2019-05-22T02:35:45.441Z,15.58
2019-05-22T02:38:16.897Z,15.50
2019-05-22T02:40:49.413Z,15.31
2019-05-22T02:43:22.054Z,15.16
2019-05-22T02:45:53.147Z,14.99
2019-05-22T02:48:25.966Z,14.92
2019-05-22T02:50:57.463Z,14.79
2019-05-22T02:53:29.906Z,14.56
2019-05-22T02:56:00.726Z,14.49
2019-05-22T02:58:31.682Z,14.47
2019-05-22T03:01:05.855Z,14.49
2019-05-22T03:03:38.889Z,14.62
2019-05-22T03:06:14.095Z,15.13
2019-05-22T03:09:23.994Z,15.91
2019-05-22T03:12:11.655Z,16.63
2019-05-22T03:14:43.563Z,17.43
2019-05-22T03:17:30.501Z,18.21
2019-05-22T03:20:04.613Z,18.67
2019-05-22T03:22:41.068Z,19.48
2019-05-22T03:25:12.993Z,20.35
2019-05-22T03:27:47.117Z,21.35
2019-05-22T03:30:24.785Z,22.30
2019-05-22T03:32:57.708Z,22.94
2019-05-22T03:35:31.796Z,24.04
2019-05-22T03:38:04.806Z,24.57
2019-05-22T03:40:37.380Z,24.85
2019-05-22T03:43:20.551Z,25.11
2019-05-22T03:45:54.562Z,26.15
2019-05-22T03:48:26.638Z,26.70
2019-05-22T03:51:01.075Z,27.48
2019-05-22T03:53:32.456Z,27.31
2019-05-22T03:56:03.925Z,27.57
2019-05-22T03:58:36.482Z,28.86
2019-05-22T04:01:08.284Z,29.99
2019-05-22T04:03:40.670Z,30.54
2019-05-22T04:06:12.614Z,31.42
2019-05-22T04:08:43.983Z,31.88
2019-05-22T04:11:14.977Z,32.45
2019-05-22T04:13:45.821Z,32.49
2019-05-22T04:16:19.246Z,32.39
2019-05-22T04:18:51.467Z,32.39
2019-05-22T04:21:22.515Z,32.81
2019-05-22T04:23:53.675Z,33.11
2019-05-22T04:26:26.819Z,33.27
2019-05-22T04:28:58.117Z,31.35
2019-05-22T04:32:10.826Z,31.01
2019-05-22T04:34:41.619Z,31.34
2019-05-22T04:37:14.948Z,30.59
2019-05-22T04:39:49.578Z,32.19
2019-05-22T04:42:21.849Z,32.69
2019-05-22T04:45:11.469Z,33.78
2019-05-22T04:47:43.695Z,34.69
2019-05-22T04:50:16.131Z,34.55
2019-05-22T04:52:49.982Z,35.25
2019-05-22T04:55:21.246Z,36.77
2019-05-22T04:57:52.699Z,37.53
2019-05-22T05:00:26.350Z,38.41
2019-05-22T05:02:57.073Z,37.66
2019-05-22T05:05:30.113Z,37.12
2019-05-22T05:08:01.358Z,37.63
2019-05-22T05:10:34.525Z,37.89
2019-05-22T05:13:05.808Z,38.86
2019-05-22T05:15:37.393Z,39.00
2019-05-22T05:18:08.630Z,38.26
2019-05-22T05:20:39.817Z,39.13
2019-05-22T05:23:10.400Z,39.50
2019-05-22T05:25:42.520Z,40.58
2019-05-22T05:28:14.863Z,39.36
2019-05-22T05:30:45.727Z,39.57
2019-05-22T05:33:16.523Z,39.95
2019-05-22T05:35:50.477Z,39.18
2019-05-22T05:38:23.809Z,39.98
2019-05-22T05:40:57.947Z,41.05
2019-05-22T05:43:29.319Z,41.72
2019-05-22T05:46:00.205Z,41.77
2019-05-22T05:48:35.292Z,41.81
2019-05-22T05:51:43.212Z,42.44
2019-05-22T05:54:15.508Z,41.87
2019-05-22T05:56:49.908Z,40.23
2019-05-22T05:59:26.682Z,39.67
2019-05-22T06:01:58.306Z,39.30
2019-05-22T06:04:35.891Z,39.39
2019-05-22T06:07:22.011Z,39.62
2019-05-22T06:09:59.568Z,39.79
2019-05-22T06:12:32.028Z,39.32
2019-05-22T06:15:03.754Z,38.98
2019-05-22T06:18:10.781Z,38.90
2019-05-22T06:20:43.148Z,38.42
2019-05-22T06:23:52.554Z,37.66
2019-05-22T06:26:52.463Z,37.92
2019-05-22T06:29:27.797Z,37.79
2019-05-22T06:32:43.393Z,37.71
2019-05-22T06:35:15.157Z,38.86
2019-05-22T06:37:54.684Z,39.00
2019-05-22T06:40:27.772Z,37.65
2019-05-22T06:43:37.908Z,38.10
2019-05-22T06:46:12.053Z,38.23
2019-05-22T06:48:44.582Z,38.56
2019-05-22T06:51:19.370Z,37.31
2019-05-22T06:53:48.517Z,38.00
2019-05-22T06:56:23.599Z,38.58
2019-05-22T06:58:52.225Z,38.98
2019-05-22T07:01:23.353Z,39.44
2019-05-22T07:03:54.060Z,39.69
2019-05-22T07:06:24.789Z,38.51
2019-05-22T07:08:56.138Z,38.73
2019-05-22T07:11:26.906Z,38.71
2019-05-22T07:13:59.415Z,38.65
2019-05-22T07:16:31.723Z,38.16
2019-05-22T07:19:04.270Z,38.28
2019-05-22T07:21:35.888Z,38.11
2019-05-22T07:24:06.968Z,37.51
2019-05-22T07:26:41.531Z,38.49
2019-05-22T07:29:12.462Z,38.70
2019-05-22T07:31:42.981Z,39.30
2019-05-22T07:34:15.344Z,39.37
2019-05-22T07:36:48.050Z,38.74
2019-05-22T07:39:19.226Z,38.68
2019-05-22T07:41:51.092Z,38.54
2019-05-22T07:44:22.883Z,37.94
2019-05-22T07:46:54.854Z,37.02
2019-05-22T07:49:26.005Z,36.33
2019-05-22T07:52:01.595Z,35.78
2019-05-22T07:54:29.838Z,35.40
2019-05-22T07:57:01.299Z,34.63
2019-05-22T07:59:32.702Z,33.11
2019-05-22T08:02:04.574Z,32.58
2019-05-22T08:04:36.618Z,31.18
2019-05-22T08:07:09.163Z,30.27
2019-05-22T08:09:40.350Z,28.93
2019-05-22T08:12:13.210Z,28.04
2019-05-22T08:14:44.704Z,27.28
2019-05-22T08:17:18.171Z,26.87
2019-05-22T08:19:50.317Z,26.43
2019-05-22T08:22:22.616Z,26.17
2019-05-22T08:24:53.660Z,25.97
2019-05-22T08:27:26.283Z,25.53
2019-05-22T08:29:57.242Z,25.45
2019-05-22T08:32:29.674Z,25.43
2019-05-22T08:35:00.972Z,25.38
2019-05-22T08:37:35.571Z,25.33
2019-05-22T08:40:08.041Z,25.16
2019-05-22T08:42:40.576Z,25.12
2019-05-22T08:45:12.514Z,25.13
2019-05-22T08:47:43.791Z,25.10
2019-05-22T08:50:17.402Z,25.12
2019-05-22T08:52:49.587Z,25.18
2019-05-22T08:55:21.002Z,25.21
2019-05-22T08:57:51.453Z,25.26
2019-05-22T09:00:24.421Z,25.41
2019-05-22T09:02:55.922Z,25.40
2019-05-22T09:05:27.427Z,25.41
2019-05-22T09:07:59.730Z,25.50
2019-05-22T09:10:30.559Z,25.56
2019-05-22T09:13:01.408Z,25.60
2019-05-22T09:15:33.570Z,25.62
2019-05-22T09:18:04.415Z,25.69
2019-05-22T09:20:48.773Z,25.62
2019-05-22T09:23:08.654Z,25.54
2019-05-22T09:25:39.149Z,25.73
2019-05-22T09:28:11.628Z,25.96
2019-05-22T09:30:42.977Z,26.01
2019-05-22T09:33:15.019Z,26.04
2019-05-22T09:35:46.064Z,26.03
2019-05-22T09:38:17.209Z,26.00
2019-05-22T09:40:48.598Z,26.12
2019-05-22T09:43:19.010Z,26.13
2019-05-22T09:45:49.459Z,26.15
2019-05-22T09:48:20.500Z,26.17
2019-05-22T09:50:52.553Z,26.16
2019-05-22T09:53:23.426Z,26.14
2019-05-22T09:55:55.378Z,26.07
2019-05-22T09:58:28.008Z,26.22
2019-05-22T10:00:59.003Z,26.25
2019-05-22T10:03:29.524Z,26.16
2019-05-22T10:06:01.240Z,25.91
2019-05-22T10:08:32.391Z,25.94
2019-05-22T10:11:03.680Z,25.94
2019-05-22T10:13:34.771Z,26.02
2019-05-22T10:16:05.617Z,26.09
2019-05-22T10:18:36.239Z,26.12
2019-05-22T10:21:07.642Z,26.04
2019-05-22T10:23:38.136Z,25.74
2019-05-22T10:26:08.806Z,25.47
2019-05-22T10:28:40.008Z,25.71
2019-05-22T10:31:11.699Z,25.81
2019-05-22T10:33:43.849Z,25.92
2019-05-22T10:36:14.453Z,26.04
2019-05-22T10:38:44.978Z,26.10
2019-05-22T10:41:16.082Z,26.08
2019-05-22T10:43:47.230Z,26.15
2019-05-22T10:46:17.791Z,26.05
2019-05-22T10:48:48.677Z,25.98
2019-05-22T10:51:20.230Z,26.02
2019-05-22T10:53:51.383Z,26.13
2019-05-22T10:56:21.884Z,25.93
2019-05-22T10:58:52.303Z,26.06
2019-05-22T11:01:23.643Z,26.06
2019-05-22T11:03:54.914Z,26.18
2019-05-22T11:06:26.285Z,26.22
2019-05-22T11:08:58.045Z,26.28
2019-05-22T11:11:29.736Z,26.36
2019-05-22T11:14:02.414Z,26.33
2019-05-22T11:16:33.062Z,26.38
2019-05-22T11:19:06.167Z,26.32
2019-05-22T11:21:37.604Z,26.22
2019-05-22T11:24:08.977Z,25.93
2019-05-22T11:26:39.984Z,25.67
2019-05-22T11:29:11.855Z,25.40
2019-05-22T11:31:44.572Z,25.19
2019-05-22T11:34:15.406Z,25.19
2019-05-22T11:36:46.348Z,25.08
2019-05-22T11:39:36.360Z,24.41
2019-05-22T11:41:53.126Z,24.44
2019-05-22T11:44:24.096Z,24.38
2019-05-22T11:46:54.901Z,24.17
2019-05-22T11:49:25.769Z,23.83
2019-05-22T11:51:58.002Z,23.79
2019-05-22T11:54:29.151Z,23.73
2019-05-22T11:57:00.170Z,23.77
2019-05-22T11:59:30.937Z,23.41
2019-05-22T12:02:01.599Z,22.70
2019-05-22T12:04:47.196Z,22.51
2019-05-22T12:07:06.072Z,22.54
2019-05-22T12:09:37.230Z,22.69
2019-05-22T12:12:10.305Z,22.81
2019-05-22T12:14:41.168Z,22.80
2019-05-22T12:17:12.898Z,23.02
2019-05-22T12:19:43.935Z,23.12
2019-05-22T12:22:19.842Z,23.27
2019-05-22T12:24:49.412Z,23.42
2019-05-22T12:27:20.291Z,23.61
2019-05-22T12:29:51.595Z,23.69
2019-05-22T12:32:22.323Z,23.83
2019-05-22T12:34:54.740Z,24.00
2019-05-22T12:37:27.286Z,24.08
2019-05-22T12:39:59.773Z,24.14
2019-05-22T12:42:30.589Z,24.11
2019-05-22T12:45:01.412Z,24.04
2019-05-22T12:47:32.231Z,24.13
2019-05-22T12:50:05.239Z,24.14
2019-05-22T12:52:37.961Z,24.16
2019-05-22T12:55:11.265Z,24.19
2019-05-22T12:57:46.028Z,24.31
2019-05-22T13:00:17.710Z,24.46
2019-05-22T13:02:48.886Z,24.43
2019-05-22T13:05:20.248Z,24.17
2019-05-22T13:07:52.228Z,23.90
2019-05-22T13:10:23.928Z,23.78
2019-05-22T13:12:56.234Z,23.84
2019-05-22T13:15:27.626Z,23.87
2019-05-22T13:18:01.332Z,23.91
2019-05-22T13:20:42.513Z,24.10
2019-05-22T13:23:10.204Z,24.25
2019-05-22T13:25:43.117Z,24.29
2019-05-22T13:28:17.318Z,24.12
2019-05-22T13:30:52.980Z,24.35
2019-05-22T13:33:27.829Z,24.31
2019-05-22T13:35:59.830Z,24.39
2019-05-22T13:38:30.812Z,24.27
2019-05-22T13:41:02.089Z,23.57
2019-05-22T13:43:35.215Z,23.64
2019-05-22T13:46:06.878Z,23.70
2019-05-22T13:48:37.957Z,23.92
2019-05-22T13:51:09.956Z,24.08
2019-05-22T13:53:41.859Z,24.03
2019-05-22T13:56:13.698Z,24.17
2019-05-22T13:58:44.864Z,24.21
2019-05-22T14:01:16.190Z,24.38
2019-05-22T14:03:47.071Z,24.46
2019-05-22T14:06:17.902Z,24.53
2019-05-22T14:08:48.488Z,24.41
2019-05-22T14:11:20.464Z,24.25
2019-05-22T14:13:53.212Z,24.35
2019-05-22T14:16:24.912Z,24.31
2019-05-22T14:18:56.097Z,24.31
2019-05-22T14:21:26.789Z,24.25
2019-05-22T14:23:57.980Z,24.15
2019-05-22T14:26:30.058Z,24.29
2019-05-22T14:29:01.483Z,24.37
2019-05-22T14:31:32.413Z,24.55
2019-05-22T14:34:04.764Z,24.53
2019-05-22T14:36:36.201Z,24.36
2019-05-22T14:39:08.504Z,24.20
2019-05-22T14:41:40.721Z,24.17
2019-05-22T14:44:11.610Z,24.10
2019-05-22T14:46:42.386Z,24.05
2019-05-22T14:49:13.282Z,24.12
2019-05-22T14:51:45.332Z,24.13
2019-05-22T14:54:16.768Z,24.25
2019-05-22T14:56:48.034Z,24.18
2019-05-22T14:59:19.215Z,23.91
2019-05-22T15:01:49.971Z,23.81
2019-05-22T15:04:21.780Z,23.92
2019-05-22T15:06:53.496Z,23.99
2019-05-22T15:09:24.465Z,24.08
2019-05-22T15:11:55.430Z,24.17
2019-05-22T15:14:26.643Z,24.07
2019-05-22T15:16:57.484Z,23.77
2019-05-22T15:19:29.546Z,23.56
2019-05-22T15:22:00.278Z,23.42
2019-05-22T15:24:31.493Z,23.13
2019-05-22T15:27:03.628Z,22.95
2019-05-22T15:29:34.468Z,22.99
2019-05-22T15:32:06.554Z,23.16
2019-05-22T15:34:39.441Z,23.09
2019-05-22T15:37:11.526Z,22.95
2019-05-22T15:39:43.291Z,23.07
2019-05-22T15:42:27.813Z,23.16
2019-05-22T15:45:00.399Z,23.27
2019-05-22T15:47:50.308Z,23.32
2019-05-22T15:50:05.752Z,23.36
2019-05-22T15:52:38.298Z,23.36
2019-05-22T15:55:13.292Z,23.35
2019-05-22T15:57:44.464Z,23.26
2019-05-22T16:00:19.590Z,23.24
2019-05-22T16:02:51.110Z,23.22
2019-05-22T16:05:23.611Z,23.20
2019-05-22T16:07:55.333Z,23.17
2019-05-22T16:10:26.362Z,23.16
2019-05-22T16:12:58.204Z,23.11
2019-05-22T16:15:30.840Z,23.07
2019-05-22T16:18:11.542Z,22.97
2019-05-22T16:20:41.677Z,22.89
2019-05-22T16:23:14.322Z,22.90
2019-05-22T16:25:45.149Z,22.68
2019-05-22T16:28:16.405Z,22.60
2019-05-22T16:30:47.145Z,22.57
2019-05-22T16:33:17.994Z,22.24
2019-05-22T16:35:48.817Z,22.08
2019-05-22T16:38:21.267Z,21.84
2019-05-22T16:40:52.192Z,21.75
2019-05-22T16:43:24.230Z,21.36
2019-05-22T16:45:56.625Z,21.17
2019-05-22T16:48:29.489Z,21.02
2019-05-22T16:51:00.993Z,21.19
2019-05-22T16:53:33.425Z,21.29
2019-05-22T16:56:05.663Z,21.26
2019-05-22T16:58:38.911Z,21.29
2019-05-22T17:01:10.266Z,21.25
2019-05-22T17:03:41.694Z,21.15
2019-05-22T17:06:30.997Z,21.10
2019-05-22T17:09:04.306Z,21.08
2019-05-22T17:11:35.516Z,21.00
2019-05-22T17:14:08.721Z,20.97
2019-05-22T17:16:41.570Z,20.89
2019-05-22T17:19:26.621Z,20.86
2019-05-22T17:21:46.320Z,20.79
2019-05-22T17:24:20.713Z,20.77
2019-05-22T17:26:52.812Z,20.73
2019-05-22T17:29:24.549Z,20.66
2019-05-22T17:31:55.962Z,20.60
2019-05-22T17:34:33.318Z,20.54
2019-05-22T17:37:12.013Z,20.60
2019-05-22T17:39:45.753Z,20.52
2019-05-22T17:42:23.626Z,20.44
2019-05-22T17:44:55.743Z,20.40
2019-05-22T17:47:28.094Z,20.38
2019-05-22T17:50:00.260Z,20.32
2019-05-22T17:52:32.192Z,20.24
2019-05-22T17:55:02.670Z,20.23
2019-05-22T17:57:33.417Z,20.05
2019-05-22T18:00:06.893Z,19.99
2019-05-22T18:02:37.904Z,19.88
2019-05-22T18:05:09.953Z,19.88
2019-05-22T18:07:40.829Z,19.78
2019-05-22T18:10:13.551Z,19.81
2019-05-22T18:12:44.398Z,19.71
2019-05-22T18:15:16.026Z,19.73
2019-05-22T18:17:48.907Z,19.80
2019-05-22T18:20:19.962Z,19.84
2019-05-22T18:22:50.945Z,19.86
2019-05-22T18:25:22.146Z,19.84
2019-05-22T18:27:53.648Z,19.83
2019-05-22T18:30:26.189Z,19.88
2019-05-22T18:32:57.314Z,19.81
2019-05-22T18:35:28.407Z,19.78
2019-05-22T18:38:04.159Z,19.78
2019-05-22T18:40:34.209Z,19.75
2019-05-22T18:43:06.054Z,19.75
2019-05-22T18:45:37.494Z,19.76
2019-05-22T18:48:11.096Z,19.76
2019-05-22T18:50:44.898Z,19.70
2019-05-22T18:53:16.363Z,19.66
2019-05-22T18:55:47.309Z,19.62
2019-05-22T18:58:19.139Z,19.60
2019-05-22T19:00:49.999Z,19.53
2019-05-22T19:03:22.233Z,19.49
2019-05-22T19:05:54.006Z,19.51
2019-05-22T19:08:26.006Z,19.47
2019-05-22T19:10:56.747Z,19.43
2019-05-22T19:13:27.323Z,19.37
2019-05-22T19:15:58.573Z,19.36
2019-05-22T19:18:29.450Z,19.35
2019-05-22T19:21:02.197Z,19.34
2019-05-22T19:23:32.877Z,19.29
2019-05-22T19:26:06.354Z,19.32
2019-05-22T19:28:43.333Z,19.28
2019-05-22T19:31:10.372Z,19.27
2019-05-22T19:34:01.263Z,19.26
2019-05-22T19:36:32.073Z,19.27
2019-05-22T19:39:05.346Z,19.29
2019-05-22T19:41:36.573Z,19.32
2019-05-22T19:44:09.471Z,19.35
2019-05-22T19:46:40.600Z,19.33
2019-05-22T19:49:12.421Z,19.30
2019-05-22T19:51:44.435Z,19.22
2019-05-22T19:54:15.817Z,19.15
2019-05-22T19:56:47.182Z,19.08
2019-05-22T19:59:19.153Z,18.96
2019-05-22T20:01:50.376Z,18.87
2019-05-22T20:04:21.644Z,18.70
2019-05-22T20:06:53.097Z,18.64
2019-05-22T20:09:25.758Z,18.66
2019-05-22T20:11:56.393Z,18.66
2019-05-22T20:14:30.434Z,18.64
2019-05-22T20:17:01.189Z,18.60
2019-05-22T20:19:32.045Z,18.47
2019-05-22T20:22:04.950Z,18.39
2019-05-22T20:24:37.477Z,18.42
2019-05-22T20:27:09.887Z,18.39
2019-05-22T20:29:41.582Z,18.35
2019-05-22T20:32:14.197Z,18.32
2019-05-22T20:34:45.420Z,18.29
2019-05-22T20:37:16.377Z,18.27
2019-05-22T20:39:47.519Z,18.35
2019-05-22T20:42:18.314Z,18.33
2019-05-22T20:44:50.141Z,18.29
2019-05-22T20:47:25.577Z,18.25
2019-05-22T20:49:57.555Z,18.23
2019-05-22T20:52:31.839Z,18.21
2019-05-22T20:55:03.253Z,18.18
2019-05-22T20:57:34.541Z,18.13
2019-05-22T21:00:07.272Z,18.13
2019-05-22T21:02:40.526Z,18.09
2019-05-22T21:05:13.260Z,18.07
2019-05-22T21:07:51.240Z,18.05
2019-05-22T21:10:42.953Z,18.00
2019-05-22T21:13:14.284Z,17.89
2019-05-22T21:15:45.392Z,17.86
2019-05-22T21:18:17.336Z,17.82
2019-05-22T21:20:55.126Z,17.79
2019-05-22T21:23:25.619Z,17.80
2019-05-22T21:25:56.385Z,17.76
2019-05-22T21:28:28.135Z,17.75
2019-05-22T21:30:59.410Z,17.74
2019-05-22T21:33:30.994Z,17.70
2019-05-22T21:36:02.170Z,17.67
2019-05-22T21:38:33.643Z,17.66
2019-05-22T21:41:04.875Z,17.66
2019-05-22T21:43:36.367Z,17.66
2019-05-22T21:46:08.072Z,17.66
2019-05-22T21:48:41.334Z,17.60
2019-05-22T21:51:12.830Z,17.51
2019-05-22T21:53:44.664Z,17.48
2019-05-22T21:56:15.705Z,17.40
2019-05-22T21:58:46.942Z,17.36
2019-05-22T22:01:25.968Z,17.38
2019-05-22T22:04:23.539Z,17.40
2019-05-22T22:06:55.492Z,17.35
2019-05-22T22:09:27.871Z,17.35
2019-05-22T22:11:59.321Z,17.32
2019-05-22T22:14:32.627Z,17.27
2019-05-22T22:17:04.023Z,17.26
2019-05-22T22:19:35.618Z,17.29
2019-05-22T22:22:10.891Z,17.26
2019-05-22T22:24:43.149Z,17.24
2019-05-22T22:27:15.375Z,17.31
2019-05-22T22:29:47.900Z,17.28
2019-05-22T22:32:20.913Z,17.28
2019-05-22T22:34:53.483Z,17.22
2019-05-22T22:37:26.185Z,17.23
2019-05-22T22:40:00.228Z,17.29
2019-05-22T22:42:36.603Z,17.30
2019-05-22T22:45:09.094Z,17.34
2019-05-22T22:47:44.981Z,17.30
2019-05-22T22:50:18.121Z,17.09
2019-05-22T22:52:51.090Z,17.04
2019-05-22T22:55:23.782Z,17.02
2019-05-22T22:57:55.626Z,16.99
2019-05-22T23:00:35.874Z,16.90
2019-05-22T23:03:09.987Z,16.94
2019-05-22T23:05:41.949Z,16.85
2019-05-22T23:08:16.456Z,16.83
2019-05-22T23:10:50.311Z,16.82
2019-05-22T23:13:22.884Z,16.80
2019-05-22T23:15:54.786Z,16.82
2019-05-22T23:19:11.491Z,16.86
2019-05-22T23:21:40.610Z,16.93
2019-05-22T23:24:14.711Z,16.98
2019-05-22T23:26:45.872Z,16.96
2019-05-22T23:29:17.297Z,16.92
2019-05-22T23:31:49.881Z,16.81
2019-05-22T23:34:20.557Z,16.70
2019-05-22T23:36:52.673Z,16.68
2019-05-22T23:39:24.149Z,16.74
2019-05-22T23:41:58.974Z,16.75
2019-05-22T23:44:31.693Z,16.76
2019-05-22T23:47:04.268Z,16.73
2019-05-22T23:49:37.439Z,16.65
2019-05-22T23:52:08.812Z,16.59
2019-05-22T23:54:40.434Z,16.56
2019-05-22T23:58:03.409Z,16.50
